createdAt,value
2019-05-18T00:00:46.661Z,10.00
2019-05-18T00:03:16.824Z,9.90
2019-05-18T00:05:45.945Z,10.00
2019-05-18T00:08:14.877Z,10.00
2019-05-18T00:10:43.849Z,10.10
2019-05-18T00:13:12.757Z,10.10
2019-05-18T00:15:41.721Z,10.00
2019-05-18T00:18:10.588Z,10.10
2019-05-18T00:20:39.586Z,10.10
2019-05-18T00:23:08.626Z,10.10
2019-05-18T00:25:37.454Z,9.90
2019-05-18T00:28:06.474Z,9.80
2019-05-18T00:30:35.414Z,9.80
2019-05-18T00:33:04.361Z,9.70
2019-05-18T00:35:33.260Z,9.70
2019-05-18T00:38:02.147Z,9.70
2019-05-18T00:40:31.105Z,9.50
2019-05-18T00:43:00.026Z,9.50
2019-05-18T00:45:28.943Z,9.40
2019-05-18T00:47:57.838Z,9.40
2019-05-18T00:50:26.722Z,9.30
2019-05-18T00:52:55.701Z,9.30
2019-05-18T00:55:24.593Z,9.30
2019-05-18T00:57:53.433Z,9.30
2019-05-18T01:00:22.432Z,9.30
2019-05-18T01:02:51.330Z,9.30
2019-05-18T01:05:20.494Z,9.20
2019-05-18T01:07:49.521Z,9.20
2019-05-18T01:10:18.817Z,9.10
2019-05-18T01:12:47.709Z,9.10
2019-05-18T01:15:17.279Z,9.10
2019-05-18T01:17:57.010Z,9.10
2019-05-18T01:20:17.333Z,9.10
2019-05-18T01:22:46.380Z,9.20
2019-05-18T01:25:15.460Z,9.20
2019-05-18T01:27:44.474Z,9.20
2019-05-18T01:30:13.853Z,9.20
2019-05-18T01:32:42.834Z,9.10
2019-05-18T01:35:12.592Z,9.10
2019-05-18T01:37:41.743Z,9.00
2019-05-18T01:40:10.995Z,8.90
2019-05-18T01:42:39.974Z,8.90
2019-05-18T01:45:16.832Z,8.90
2019-05-18T01:47:40.210Z,8.90
2019-05-18T01:50:09.454Z,8.90
2019-05-18T01:52:38.477Z,8.90
2019-05-18T01:55:07.994Z,8.70
2019-05-18T01:57:36.916Z,8.80
2019-05-18T02:00:06.739Z,8.80
2019-05-18T02:02:35.707Z,8.70
2019-05-18T02:05:05.646Z,8.70
2019-05-18T02:07:34.648Z,8.60
2019-05-18T02:10:05.048Z,8.60
2019-05-18T02:12:34.063Z,8.50
2019-05-18T02:15:02.962Z,8.70
2019-05-18T02:17:31.865Z,8.70
2019-05-18T02:20:00.769Z,8.60
2019-05-18T02:22:29.762Z,8.60
2019-05-18T02:24:58.752Z,8.40
2019-05-18T02:27:27.585Z,8.40
2019-05-18T02:29:56.577Z,8.40
2019-05-18T02:32:25.479Z,8.40
2019-05-18T02:34:54.368Z,8.50
2019-05-18T02:37:23.256Z,8.40
2019-05-18T02:39:54.985Z,8.40
2019-05-18T02:42:23.892Z,8.30
2019-05-18T02:44:52.720Z,8.30
2019-05-18T02:47:21.711Z,8.30
2019-05-18T02:49:50.684Z,8.20
2019-05-18T02:52:19.557Z,8.20
2019-05-18T02:54:48.393Z,8.20
2019-05-18T02:57:17.362Z,8.00
2019-05-18T02:59:46.334Z,8.00
2019-05-18T03:02:15.267Z,8.00
2019-05-18T03:04:44.151Z,8.00
2019-05-18T03:07:15.860Z,8.00
2019-05-18T03:09:44.872Z,8.00
2019-05-18T03:12:13.729Z,7.90
2019-05-18T03:14:42.730Z,7.90
2019-05-18T03:17:11.570Z,7.90
2019-05-18T03:19:40.518Z,7.90
2019-05-18T03:22:09.577Z,7.90
2019-05-18T03:24:38.527Z,7.90
2019-05-18T03:27:07.485Z,7.90
2019-05-18T03:29:36.325Z,7.90
2019-05-18T03:32:05.225Z,7.80
2019-05-18T03:34:34.124Z,7.90
2019-05-18T03:37:03.084Z,7.90
2019-05-18T03:39:32.070Z,7.90
2019-05-18T03:42:00.891Z,8.10
2019-05-18T03:44:29.753Z,8.00
2019-05-18T03:46:58.572Z,8.00
2019-05-18T03:49:27.879Z,8.00
2019-05-18T03:51:57.069Z,8.00
2019-05-18T03:54:25.970Z,8.00
2019-05-18T03:56:54.777Z,8.00
2019-05-18T03:59:23.620Z,8.00
2019-05-18T04:01:52.519Z,8.00
2019-05-18T04:04:21.403Z,7.90
2019-05-18T04:06:50.255Z,8.00
2019-05-18T04:09:19.094Z,8.00
2019-05-18T04:11:48.199Z,8.00
2019-05-18T04:14:17.087Z,8.10
2019-05-18T04:16:45.975Z,8.10
2019-05-18T04:19:14.790Z,8.00
2019-05-18T04:21:43.683Z,8.00
2019-05-18T04:24:12.613Z,8.10
2019-05-18T04:26:41.451Z,8.10
2019-05-18T04:29:10.287Z,8.10
2019-05-18T04:31:39.198Z,8.10
2019-05-18T04:34:08.147Z,8.10
2019-05-18T04:36:37.117Z,8.10
2019-05-18T04:39:06.981Z,8.20
2019-05-18T04:41:35.936Z,8.20
2019-05-18T04:44:05.044Z,8.30
2019-05-18T04:46:34.093Z,8.30
2019-05-18T04:49:03.066Z,8.30
2019-05-18T04:51:32.047Z,8.40
2019-05-18T04:54:01.048Z,8.50
2019-05-18T04:56:29.881Z,8.60
2019-05-18T04:58:58.785Z,8.80
2019-05-18T05:01:27.778Z,8.90
2019-05-18T05:03:56.767Z,8.90
2019-05-18T05:06:25.658Z,9.00
2019-05-18T05:08:54.498Z,9.00
2019-05-18T05:11:23.422Z,9.00
2019-05-18T05:13:52.262Z,9.10
2019-05-18T05:16:21.192Z,9.20
2019-05-18T05:18:50.056Z,9.20
2019-05-18T05:21:19.016Z,9.20
2019-05-18T05:23:47.932Z,9.30
2019-05-18T05:26:16.987Z,9.60
2019-05-18T05:28:45.921Z,9.70
2019-05-18T05:31:14.806Z,9.70
2019-05-18T05:33:43.783Z,9.80
2019-05-18T05:36:12.857Z,10.00
2019-05-18T05:38:41.685Z,10.10
2019-05-18T05:41:16.340Z,10.10
2019-05-18T05:43:41.571Z,10.20
2019-05-18T05:46:10.490Z,10.20
2019-05-18T05:48:39.404Z,10.20
2019-05-18T05:51:08.504Z,10.30
2019-05-18T05:53:37.456Z,10.30
2019-05-18T05:56:06.404Z,10.50
2019-05-18T05:58:35.338Z,10.50
2019-05-18T06:01:04.345Z,10.60
2019-05-18T06:03:33.264Z,10.70
2019-05-18T06:06:02.202Z,10.70
2019-05-18T06:08:31.182Z,10.90
2019-05-18T06:11:00.037Z,11.00
2019-05-18T06:13:28.924Z,11.10
2019-05-18T06:15:57.808Z,11.10
2019-05-18T06:18:26.738Z,11.20
2019-05-18T06:20:55.570Z,11.10
2019-05-18T06:23:24.442Z,11.30
2019-05-18T06:25:53.385Z,11.50
2019-05-18T06:28:22.347Z,11.60
2019-05-18T06:30:51.332Z,11.70
2019-05-18T06:33:20.343Z,11.80
2019-05-18T06:35:49.199Z,11.90
2019-05-18T06:38:18.242Z,11.90
2019-05-18T06:40:47.173Z,12.00
2019-05-18T06:43:16.262Z,12.20
2019-05-18T06:45:45.337Z,12.30
2019-05-18T06:48:14.161Z,12.40
2019-05-18T06:50:43.697Z,12.50
2019-05-18T06:53:12.642Z,12.70
2019-05-18T06:55:42.071Z,12.80
2019-05-18T06:58:11.260Z,12.70
2019-05-18T07:00:40.238Z,12.80
2019-05-18T07:03:09.415Z,12.80
2019-05-18T07:05:38.230Z,12.90
2019-05-18T07:08:07.253Z,13.20
2019-05-18T07:10:36.124Z,13.40
2019-05-18T07:13:05.002Z,13.40
2019-05-18T07:15:33.938Z,13.60
2019-05-18T07:18:02.847Z,13.70
2019-05-18T07:20:31.760Z,13.80
2019-05-18T07:23:00.730Z,14.00
2019-05-18T07:25:29.668Z,14.10
2019-05-18T07:27:58.530Z,14.10
2019-05-18T07:30:27.419Z,14.30
2019-05-18T07:32:56.350Z,14.30
2019-05-18T07:35:25.231Z,14.40
2019-05-18T07:37:54.196Z,14.50
2019-05-18T07:40:23.209Z,14.60
2019-05-18T07:42:52.181Z,14.70
2019-05-18T07:45:21.174Z,14.60
2019-05-18T07:47:50.103Z,14.80
2019-05-18T07:50:19.144Z,14.80
2019-05-18T07:52:48.100Z,15.30
2019-05-18T07:55:19.840Z,15.40
2019-05-18T07:57:48.649Z,15.60
2019-05-18T08:00:18.148Z,15.40
2019-05-18T08:02:47.082Z,15.60
2019-05-18T08:05:16.021Z,15.70
2019-05-18T08:07:44.952Z,15.80
2019-05-18T08:10:14.426Z,16.00
2019-05-18T08:12:43.351Z,16.10
2019-05-18T08:15:12.630Z,15.90
2019-05-18T08:17:41.717Z,15.90
2019-05-18T08:20:11.060Z,16.00
2019-05-18T08:22:40.149Z,15.70
2019-05-18T08:25:09.413Z,15.80
2019-05-18T08:27:40.590Z,15.90
2019-05-18T08:30:09.393Z,16.00
2019-05-18T08:32:38.413Z,16.10
2019-05-18T08:35:08.766Z,16.00
2019-05-18T08:37:37.698Z,15.90
2019-05-18T08:40:06.980Z,16.00
2019-05-18T08:42:36.030Z,16.10
2019-05-18T08:45:05.322Z,16.20
2019-05-18T08:47:34.250Z,16.40
2019-05-18T08:50:03.351Z,16.20
2019-05-18T08:52:35.057Z,16.30
2019-05-18T08:55:03.147Z,16.40
2019-05-18T08:57:32.063Z,16.20
2019-05-18T09:00:00.959Z,16.40
2019-05-18T09:02:29.869Z,16.60
2019-05-18T09:04:58.673Z,16.50
2019-05-18T09:07:27.617Z,16.60
2019-05-18T09:09:56.549Z,16.80
2019-05-18T09:12:25.604Z,17.20
2019-05-18T09:14:54.589Z,17.10
2019-05-18T09:17:23.557Z,17.50
2019-05-18T09:19:52.537Z,17.50
2019-05-18T09:22:23.459Z,17.40
2019-05-18T09:24:52.254Z,17.30
2019-05-18T09:27:21.192Z,17.40
2019-05-18T09:29:50.354Z,17.30
2019-05-18T09:32:19.186Z,17.20
2019-05-18T09:34:48.126Z,17.30
2019-05-18T09:37:17.118Z,17.60
2019-05-18T09:39:46.026Z,17.80
2019-05-18T09:42:14.911Z,17.90
2019-05-18T09:44:43.765Z,18.00
2019-05-18T09:47:12.744Z,18.40
2019-05-18T09:49:41.754Z,18.30
2019-05-18T09:52:11.041Z,18.40
2019-05-18T09:54:40.071Z,18.20
2019-05-18T09:57:09.043Z,18.10
2019-05-18T09:59:38.010Z,18.30
2019-05-18T10:02:07.110Z,18.00
2019-05-18T10:04:36.200Z,18.10
2019-05-18T10:07:05.251Z,18.60
2019-05-18T10:09:39.402Z,18.50
2019-05-18T10:12:05.065Z,18.50
2019-05-18T10:14:34.029Z,18.60
2019-05-18T10:17:02.961Z,18.80
2019-05-18T10:19:31.820Z,18.70
2019-05-18T10:22:00.839Z,18.90
2019-05-18T10:24:29.843Z,18.50
2019-05-18T10:26:58.730Z,18.30
2019-05-18T10:29:27.594Z,18.40
2019-05-18T10:31:56.606Z,18.50
2019-05-18T10:34:25.540Z,18.70
2019-05-18T10:36:54.757Z,18.90
2019-05-18T10:39:23.753Z,18.80
2019-05-18T10:41:52.795Z,19.00
2019-05-18T10:44:21.641Z,19.00
2019-05-18T10:46:50.611Z,19.30
2019-05-18T10:49:19.632Z,18.70
2019-05-18T10:51:48.713Z,18.50
2019-05-18T10:54:17.652Z,18.30
2019-05-18T10:56:46.617Z,18.60
2019-05-18T10:59:15.571Z,19.00
2019-05-18T11:01:44.403Z,19.40
2019-05-18T11:04:13.354Z,19.20
2019-05-18T11:06:42.426Z,19.10
2019-05-18T11:09:11.448Z,18.80
2019-05-18T11:11:40.429Z,18.60
2019-05-18T11:14:09.383Z,18.80
2019-05-18T11:16:38.384Z,18.90
2019-05-18T11:19:07.317Z,18.90
2019-05-18T11:21:36.255Z,19.00
2019-05-18T11:24:05.420Z,19.30
2019-05-18T11:26:34.540Z,19.20
2019-05-18T11:29:03.602Z,19.40
2019-05-18T11:31:32.448Z,19.20
2019-05-18T11:34:01.425Z,19.40
2019-05-18T11:36:30.484Z,19.60
2019-05-18T11:38:59.422Z,18.90
2019-05-18T11:41:28.328Z,18.80
2019-05-18T11:43:57.173Z,19.20
2019-05-18T11:46:26.069Z,19.40
2019-05-18T11:48:54.925Z,19.50
2019-05-18T11:51:23.843Z,19.40
2019-05-18T11:53:58.239Z,19.60
2019-05-18T11:56:23.541Z,19.80
2019-05-18T11:58:52.437Z,19.80
2019-05-18T12:01:21.378Z,20.20
2019-05-18T12:03:50.423Z,20.30
2019-05-18T12:06:19.818Z,20.00
2019-05-18T12:08:50.605Z,19.90
2019-05-18T12:11:19.686Z,20.20
2019-05-18T12:13:48.523Z,20.70
2019-05-18T12:16:17.653Z,20.50
2019-05-18T12:18:46.508Z,21.00
2019-05-18T12:21:15.426Z,20.00
2019-05-18T12:23:44.258Z,20.20
2019-05-18T12:26:13.199Z,20.10
2019-05-18T12:28:42.090Z,20.00
2019-05-18T12:31:11.189Z,19.80
2019-05-18T12:33:40.412Z,20.00
2019-05-18T12:36:09.703Z,20.00
2019-05-18T12:38:38.553Z,20.60
2019-05-18T12:41:07.704Z,21.10
2019-05-18T12:43:36.733Z,21.30
2019-05-18T12:46:05.691Z,21.10
2019-05-18T12:48:34.660Z,20.70
2019-05-18T12:51:03.721Z,21.20
2019-05-18T12:53:32.626Z,21.60
2019-05-18T12:56:01.574Z,21.30
2019-05-18T12:58:30.581Z,21.50
2019-05-18T13:00:59.498Z,21.40
2019-05-18T13:03:28.330Z,21.60
2019-05-18T13:05:57.280Z,21.80
2019-05-18T13:08:26.118Z,21.90
2019-05-18T13:10:55.010Z,21.60
2019-05-18T13:13:23.981Z,21.30
2019-05-18T13:15:52.907Z,21.00
2019-05-18T13:18:21.959Z,20.40
2019-05-18T13:20:51.655Z,20.30
2019-05-18T13:23:20.617Z,20.40
2019-05-18T13:25:49.593Z,20.80
2019-05-18T13:28:18.621Z,21.20
2019-05-18T13:30:47.637Z,21.20
2019-05-18T13:33:16.684Z,21.50
2019-05-18T13:35:45.776Z,21.80
2019-05-18T13:38:14.814Z,22.10
2019-05-18T13:40:43.772Z,22.30
2019-05-18T13:43:12.855Z,21.60
2019-05-18T13:45:42.030Z,21.90
2019-05-18T13:48:11.054Z,22.00
2019-05-18T13:50:40.084Z,22.20
2019-05-18T13:53:09.422Z,22.10
2019-05-18T13:55:38.290Z,22.10
2019-05-18T13:58:07.201Z,22.10
2019-05-18T14:00:36.124Z,22.00
2019-05-18T14:03:05.047Z,21.70
2019-05-18T14:05:34.082Z,21.50
2019-05-18T14:08:03.095Z,21.70
2019-05-18T14:10:32.081Z,22.20
2019-05-18T14:13:01.078Z,22.60
2019-05-18T14:15:30.001Z,22.90
2019-05-18T14:17:58.891Z,23.00
2019-05-18T14:20:27.793Z,23.20
2019-05-18T14:22:56.739Z,22.70
2019-05-18T14:25:25.737Z,22.70
2019-05-18T14:27:54.591Z,23.00
2019-05-18T14:30:25.036Z,23.30
2019-05-18T14:32:53.952Z,23.40
2019-05-18T14:35:22.873Z,23.50
2019-05-18T14:37:51.760Z,23.30
2019-05-18T14:40:20.778Z,23.30
2019-05-18T14:42:49.698Z,23.50
2019-05-18T14:45:19.134Z,23.40
2019-05-18T14:47:48.085Z,23.50
2019-05-18T14:50:18.896Z,23.10
2019-05-18T14:52:47.881Z,22.70
2019-05-18T14:55:16.816Z,22.60
2019-05-18T14:57:45.644Z,22.70
2019-05-18T15:00:15.087Z,23.00
2019-05-18T15:02:44.016Z,23.00
2019-05-18T15:05:13.244Z,23.10
2019-05-18T15:07:42.168Z,23.30
2019-05-18T15:10:12.669Z,23.20
2019-05-18T15:12:41.682Z,23.10
2019-05-18T15:15:17.635Z,22.90
2019-05-18T15:17:46.511Z,23.00
2019-05-18T15:20:16.641Z,23.20
2019-05-18T15:22:45.710Z,23.30
2019-05-18T15:25:15.591Z,23.40
2019-05-18T15:27:44.602Z,23.40
2019-05-18T15:30:14.126Z,23.30
2019-05-18T15:32:43.282Z,23.50
2019-05-18T15:35:12.669Z,24.20
2019-05-18T15:37:43.719Z,25.00
2019-05-18T15:40:12.693Z,25.60
2019-05-18T15:42:41.677Z,26.60
2019-05-18T15:45:11.212Z,27.20
2019-05-18T15:47:40.253Z,27.10
2019-05-18T15:50:10.595Z,27.20
2019-05-18T15:52:39.774Z,26.10
2019-05-18T15:55:09.311Z,26.10
2019-05-18T15:57:38.216Z,27.40
2019-05-18T16:00:08.489Z,26.80
2019-05-18T16:02:37.417Z,27.90
2019-05-18T16:05:06.532Z,27.70
2019-05-18T16:07:35.621Z,28.50
2019-05-18T16:10:05.306Z,27.80
2019-05-18T16:12:34.277Z,27.60
2019-05-18T16:15:03.204Z,27.70
2019-05-18T16:17:39.348Z,27.40
2019-05-18T16:20:03.006Z,27.20
2019-05-18T16:22:32.006Z,26.70
2019-05-18T16:25:00.916Z,26.30
2019-05-18T16:27:29.847Z,25.20
2019-05-18T16:29:58.856Z,24.40
2019-05-18T16:32:28.035Z,23.30
2019-05-18T16:34:56.969Z,22.60
2019-05-18T16:37:25.809Z,22.30
2019-05-18T16:39:55.061Z,22.20
2019-05-18T16:42:25.494Z,22.70
2019-05-18T16:44:54.368Z,22.80
2019-05-18T16:47:23.200Z,23.50
2019-05-18T16:49:52.044Z,23.80
2019-05-18T16:52:20.872Z,24.70
2019-05-18T16:54:49.768Z,25.00
2019-05-18T16:57:18.771Z,24.80
2019-05-18T16:59:47.849Z,26.00
2019-05-18T17:02:30.695Z,26.50
2019-05-18T17:04:47.463Z,26.60
2019-05-18T17:07:16.330Z,26.80
2019-05-18T17:09:45.282Z,26.20
2019-05-18T17:12:14.224Z,25.90
2019-05-18T17:14:43.168Z,25.80
2019-05-18T17:17:12.072Z,25.70
2019-05-18T17:19:41.082Z,25.40
2019-05-18T17:22:09.972Z,26.00
2019-05-18T17:24:38.797Z,25.40
2019-05-18T17:27:07.876Z,24.80
2019-05-18T17:29:36.693Z,24.30
2019-05-18T17:32:05.648Z,23.40
2019-05-18T17:34:36.709Z,23.00
2019-05-18T17:37:05.607Z,22.40
2019-05-18T17:39:34.564Z,22.10
2019-05-18T17:42:05.250Z,21.90
2019-05-18T17:44:34.220Z,21.90
2019-05-18T17:47:03.141Z,21.60
2019-05-18T17:49:32.069Z,21.30
2019-05-18T17:52:00.963Z,21.30
2019-05-18T17:54:29.981Z,21.20
2019-05-18T17:57:07.947Z,21.00
2019-05-18T17:59:29.396Z,20.80
2019-05-18T18:01:58.263Z,20.70
2019-05-18T18:04:27.159Z,20.60
2019-05-18T18:06:55.956Z,20.50
2019-05-18T18:09:24.910Z,20.40
2019-05-18T18:11:53.798Z,20.20
2019-05-18T18:14:22.608Z,20.20
2019-05-18T18:16:51.451Z,20.10
2019-05-18T18:19:20.286Z,19.90
2019-05-18T18:21:49.239Z,19.90
2019-05-18T18:24:18.158Z,19.70
2019-05-18T18:26:47.220Z,19.60
2019-05-18T18:29:16.202Z,19.50
2019-05-18T18:31:46.301Z,19.30
2019-05-18T18:34:15.136Z,19.20
2019-05-18T18:36:44.067Z,19.00
2019-05-18T18:39:12.942Z,18.90
2019-05-18T18:41:41.845Z,18.80
2019-05-18T18:44:10.757Z,18.70
2019-05-18T18:46:39.632Z,18.60
2019-05-18T18:49:08.891Z,18.50
2019-05-18T18:51:37.777Z,18.40
2019-05-18T18:54:06.677Z,18.20
2019-05-18T18:56:35.609Z,18.00
2019-05-18T18:59:04.610Z,17.90
2019-05-18T19:01:33.568Z,17.70
2019-05-18T19:04:02.551Z,17.60
2019-05-18T19:06:31.590Z,17.60
2019-05-18T19:09:00.551Z,17.50
2019-05-18T19:11:29.370Z,17.40
2019-05-18T19:13:58.220Z,17.20
2019-05-18T19:16:27.080Z,17.10
2019-05-18T19:18:56.005Z,17.00
2019-05-18T19:21:25.013Z,16.80
2019-05-18T19:23:54.013Z,16.80
2019-05-18T19:26:23.020Z,16.60
2019-05-18T19:28:51.894Z,16.60
2019-05-18T19:31:20.818Z,16.50
2019-05-18T19:33:49.670Z,16.40
2019-05-18T19:36:18.678Z,16.30
2019-05-18T19:38:47.542Z,16.30
2019-05-18T19:41:16.587Z,16.20
2019-05-18T19:43:45.965Z,16.10
2019-05-18T19:46:14.877Z,16.00
2019-05-18T19:48:43.705Z,16.00
2019-05-18T19:51:12.549Z,15.90
2019-05-18T19:53:43.168Z,15.80
2019-05-18T19:56:12.148Z,15.70
2019-05-18T19:58:41.030Z,15.70
2019-05-18T20:01:10.002Z,15.70
2019-05-18T20:03:38.842Z,15.60
2019-05-18T20:06:08.040Z,15.60
2019-05-18T20:08:36.967Z,15.50
2019-05-18T20:11:05.870Z,15.50
2019-05-18T20:13:34.792Z,15.40
2019-05-18T20:16:06.803Z,15.40
2019-05-18T20:18:35.660Z,15.30
2019-05-18T20:21:04.790Z,15.30
2019-05-18T20:23:33.731Z,15.20
2019-05-18T20:26:03.179Z,15.20
2019-05-18T20:28:32.050Z,15.10
2019-05-18T20:31:01.072Z,15.10
2019-05-18T20:33:30.122Z,15.00
2019-05-18T20:35:59.079Z,15.00
2019-05-18T20:38:27.927Z,15.00
2019-05-18T20:40:57.036Z,14.90
2019-05-18T20:43:25.945Z,14.90
2019-05-18T20:45:54.805Z,14.80
2019-05-18T20:48:24.239Z,14.80
2019-05-18T20:50:53.330Z,14.80
2019-05-18T20:53:22.340Z,14.80
2019-05-18T20:55:51.281Z,14.80
2019-05-18T20:58:20.132Z,14.70
2019-05-18T21:00:49.163Z,14.70
2019-05-18T21:03:18.079Z,14.70
2019-05-18T21:05:46.980Z,14.60
2019-05-18T21:08:15.833Z,14.60
2019-05-18T21:10:45.273Z,14.60
2019-05-18T21:13:14.298Z,14.50
2019-05-18T21:15:43.200Z,14.50
2019-05-18T21:18:12.279Z,14.50
2019-05-18T21:20:41.250Z,14.40
2019-05-18T21:23:10.169Z,14.40
2019-05-18T21:25:39.134Z,14.40
2019-05-18T21:28:08.205Z,14.40
2019-05-18T21:30:37.117Z,14.30
2019-05-18T21:33:06.052Z,14.30
2019-05-18T21:35:35.067Z,14.20
2019-05-18T21:38:03.968Z,14.20
2019-05-18T21:40:32.868Z,14.20
2019-05-18T21:43:01.819Z,14.10
2019-05-18T21:45:31.006Z,14.10
2019-05-18T21:48:00.167Z,14.00
2019-05-18T21:50:29.281Z,14.00
2019-05-18T21:52:58.379Z,14.00
2019-05-18T21:55:27.298Z,14.00
2019-05-18T21:57:56.323Z,13.90
2019-05-18T22:00:25.827Z,13.90
2019-05-18T22:02:54.856Z,13.90
2019-05-18T22:05:23.882Z,13.80
2019-05-18T22:07:52.902Z,13.80
2019-05-18T22:10:25.783Z,13.80
2019-05-18T22:12:52.556Z,13.70
2019-05-18T22:15:21.668Z,13.70
2019-05-18T22:18:06.022Z,13.60
2019-05-18T22:20:42.116Z,13.60
2019-05-18T22:23:06.719Z,13.60
2019-05-18T22:25:35.858Z,13.60
2019-05-18T22:28:05.009Z,13.50
2019-05-18T22:30:34.278Z,13.50
2019-05-18T22:33:03.301Z,13.50
2019-05-18T22:35:32.383Z,13.40
2019-05-18T22:38:01.339Z,13.40
2019-05-18T22:40:30.340Z,13.40
2019-05-18T22:42:59.283Z,13.40
2019-05-18T22:45:28.275Z,13.40
2019-05-18T22:47:57.260Z,13.40
2019-05-18T22:50:26.536Z,13.30
2019-05-18T22:52:55.640Z,13.30
2019-05-18T22:55:24.723Z,13.30
2019-05-18T22:57:53.789Z,13.20
2019-05-18T23:00:23.283Z,13.20
2019-05-18T23:02:52.184Z,13.20
2019-05-18T23:05:21.071Z,13.20
2019-05-18T23:07:49.903Z,13.20
2019-05-18T23:10:18.906Z,13.20
2019-05-18T23:12:47.822Z,13.20
2019-05-18T23:15:16.928Z,13.10
2019-05-18T23:17:45.878Z,13.10
2019-05-18T23:20:15.162Z,13.20
2019-05-18T23:22:44.198Z,13.10
2019-05-18T23:25:15.366Z,13.10
2019-05-18T23:27:44.327Z,13.10
2019-05-18T23:30:13.395Z,13.10
2019-05-18T23:32:42.360Z,13.30
2019-05-18T23:35:11.341Z,13.20
2019-05-18T23:37:40.235Z,13.30
2019-05-18T23:40:09.205Z,13.30
2019-05-18T23:42:38.139Z,13.30
2019-05-18T23:45:07.522Z,13.30
2019-05-18T23:47:36.414Z,13.30
2019-05-18T23:50:06.458Z,13.40
2019-05-18T23:52:35.287Z,13.30
2019-05-18T23:55:04.923Z,13.30
2019-05-18T23:57:33.962Z,13.30
